Time,TemperatureF,DewpointF,PressureIn,WindDirection,WindDirectionDegrees,WindSpeedMPH,WindSpeedGustMPH,Humidity,HourlyPrecipIn,Conditions,Clouds,dailyrainin,SoftwareType,DateUTC
2013-01-20 00:18:00,41.8,29.0,30.38,SW,222,0.0,1.0,61,0.00,,,0.00,weatherlink.com 1.10,2013-01-20 05:18:00,
2013-01-20 00:33:00,40.2,30.0,30.37,WSW,250,0.0,3.0,66,0.00,,,0.00,weatherlink.com 1.10,2013-01-20 05:33:00,
2013-01-20 00:48:00,33.7,28.0,30.37,NE,51,0.0,3.0,79,0.00,,,0.00,weatherlink.com 1.10,2013-01-20 05:48:00,
2013-01-20 01:03:00,32.4,28.0,30.37,NW,307,0.0,0.0,83,0.00,,,0.00,weatherlink.com 1.10,2013-01-20 06:03:00,
2013-01-20 01:18:00,32.2,28.0,30.36,NE,48,3.0,3.0,83,0.00,,,0.00,weatherlink.com 1.10,2013-01-20 06:18:00,
2013-01-20 01:34:00,33.3,28.0,30.37,East,79,0.0,0.0,81,0.00,,,0.00,weatherlink.com 1.10,2013-01-20 06:34:00,
2013-01-20 01:49:00,33.0,28.0,30.37,NE,34,0.0,1.0,82,0.00,,,0.00,weatherlink.com 1.10,2013-01-20 06:49:00,
2013-01-20 02:04:00,32.4,28.0,30.36,ENE,68,0.0,0.0,82,0.00,,,0.00,weatherlink.com 1.10,2013-01-20 07:04:00,
2013-01-20 02:19:00,33.6,28.0,30.37,NE,53,0.0,0.0,79,0.00,,,0.00,weatherlink.com 1.10,2013-01-20 07:19:00,
2013-01-20 02:34:00,33.3,28.0,30.37,West,270,0.0,0.0,81,0.00,,,0.00,weatherlink.com 1.10,2013-01-20 07:34:00,
2013-01-20 02:49:00,32.0,28.0,30.37,ENE,77,0.0,0.0,84,0.00,,,0.00,weatherlink.com 1.10,2013-01-20 07:49:00,
2013-01-20 03:04:00,33.6,28.0,30.37,NW,321,0.0,0.0,79,0.00,,,0.00,weatherlink.com 1.10,2013-01-20 08:04:00,
2013-01-20 03:19:00,32.4,28.0,30.36,SW,236,0.0,0.0,82,0.00,,,0.00,weatherlink.com 1.10,2013-01-20 08:19:00,
2013-01-20 03:34:00,32.5,28.0,30.36,NE,48,0.0,0.0,83,0.00,,,0.00,weatherlink.com 1.10,2013-01-20 08:34:00,
2013-01-20 03:49:00,31.8,28.0,30.37,NNE,28,0.0,0.0,85,0.00,,,0.00,weatherlink.com 1.10,2013-01-20 08:49:00,
2013-01-20 04:04:00,31.8,28.0,30.36,East,85,0.0,0.0,84,0.00,,,0.00,weatherlink.com 1.10,2013-01-20 09:04:00,
2013-01-20 04:19:00,32.9,28.0,30.35,East,87,0.0,0.0,82,0.00,,,0.00,weatherlink.com 1.10,2013-01-20 09:19:00,
2013-01-20 04:34:00,34.7,29.0,30.35,NE,42,0.0,0.0,80,0.00,,,0.00,weatherlink.com 1.10,2013-01-20 09:34:00,
2013-01-20 04:49:00,35.9,29.0,30.34,ENE,68,0.0,0.0,75,0.00,,,0.00,weatherlink.com 1.10,2013-01-20 09:49:00,
2013-01-20 05:04:00,35.5,29.0,30.35,NW,314,0.0,0.0,76,0.00,,,0.00,weatherlink.com 1.10,2013-01-20 10:04:00,
2013-01-20 05:19:00,34.7,28.0,30.35,East,84,0.0,0.0,77,0.00,,,0.00,weatherlink.com 1.10,2013-01-20 10:19:00,
2013-01-20 05:34:00,33.9,28.0,30.34,East,84,0.0,0.0,79,0.00,,,0.00,weatherlink.com 1.10,2013-01-20 10:34:00,
2013-01-20 05:49:00,34.1,28.0,30.34,East,84,0.0,0.0,79,0.00,,,0.00,weatherlink.com 1.10,2013-01-20 10:49:00,
2013-01-20 06:04:00,33.5,28.0,30.34,ENE,77,0.0,0.0,81,0.00,,,0.00,weatherlink.com 1.10,2013-01-20 11:04:00,
2013-01-20 06:19:00,31.8,28.0,30.34,WSW,241,0.0,0.0,84,0.00,,,0.00,weatherlink.com 1.10,2013-01-20 11:19:00,
2013-01-20 06:34:00,30.1,27.0,30.34,WSW,241,0.0,0.0,88,0.00,,,0.00,weatherlink.com 1.10,2013-01-20 11:34:00,
2013-01-20 06:49:00,29.6,27.0,30.34,WSW,240,0.0,0.0,89,0.00,,,0.00,weatherlink.com 1.10,2013-01-20 11:49:00,
2013-01-20 07:04:00,29.3,27.0,30.35,WSW,240,0.0,0.0,89,0.00,,,0.00,weatherlink.com 1.10,2013-01-20 12:04:00,
2013-01-20 07:19:00,29.1,27.0,30.35,WSW,240,0.0,0.0,90,0.00,,,0.00,weatherlink.com 1.10,2013-01-20 12:19:00,
2013-01-20 07:34:00,29.7,27.0,30.35,ENE,70,0.0,0.0,89,0.00,,,0.00,weatherlink.com 1.10,2013-01-20 12:34:00,
2013-01-20 07:49:00,29.5,27.0,30.35,ENE,69,0.0,0.0,89,0.00,,,0.00,weatherlink.com 1.10,2013-01-20 12:49:00,
2013-01-20 08:04:00,29.0,27.0,30.35,ENE,69,0.0,0.0,90,0.00,,,0.00,weatherlink.com 1.10,2013-01-20 13:04:00,
2013-01-20 08:19:00,28.7,26.0,30.35,ENE,69,0.0,0.0,90,0.00,,,0.00,weatherlink.com 1.10,2013-01-20 13:19:00,
2013-01-20 08:34:00,29.2,27.0,30.35,ENE,69,0.0,0.0,90,0.00,,,0.00,weatherlink.com 1.10,2013-01-20 13:34:00,
2013-01-20 08:49:00,30.0,28.0,30.36,West,278,0.0,0.0,90,0.00,,,0.00,weatherlink.com 1.10,2013-01-20 13:49:00,
2013-01-20 09:04:00,30.1,28.0,30.35,ENE,67,0.0,1.0,90,0.00,,,0.00,weatherlink.com 1.10,2013-01-20 14:04:00,
2013-01-20 09:19:00,31.8,28.0,30.35,ENE,64,0.0,0.0,87,0.00,,,0.00,weatherlink.com 1.10,2013-01-20 14:19:00,
2013-01-20 09:34:00,32.8,29.0,30.36,ENE,64,0.0,0.0,85,0.00,,,0.00,weatherlink.com 1.10,2013-01-20 14:34:00,
2013-01-20 09:49:00,34.5,31.0,30.36,ENE,63,0.0,0.0,85,0.00,,,0.00,weatherlink.com 1.10,2013-01-20 14:49:00,
2013-01-20 10:04:00,37.6,32.0,30.36,ENE,76,0.0,0.0,80,0.00,,,0.00,weatherlink.com 1.10,2013-01-20 15:04:00,
2013-01-20 10:19:00,40.6,33.0,30.36,ESE,111,0.0,0.0,74,0.00,,,0.00,weatherlink.com 1.10,2013-01-20 15:19:00,
2013-01-20 10:34:00,42.9,34.0,30.36,East,79,0.0,1.0,71,0.00,,,0.00,weatherlink.com 1.10,2013-01-20 15:34:00,
2013-01-20 10:49:00,44.6,35.0,30.36,East,88,0.0,0.0,68,0.00,,,0.00,weatherlink.com 1.10,2013-01-20 15:49:00,
2013-01-20 11:04:00,46.3,35.0,30.36,ESE,114,0.0,2.0,65,0.00,,,0.00,weatherlink.com 1.10,2013-01-20 16:04:00,
2013-01-20 11:19:00,47.5,36.0,30.35,NE,51,0.0,1.0,64,0.00,,,0.00,weatherlink.com 1.10,2013-01-20 16:19:00,
2013-01-20 11:34:00,48.2,35.0,30.34,NNE,27,0.0,1.0,61,0.00,,,0.00,weatherlink.com 1.10,2013-01-20 16:34:00,
2013-01-20 11:49:00,49.0,36.0,30.34,ENE,71,0.0,1.0,62,0.00,,,0.00,weatherlink.com 1.10,2013-01-20 16:49:00,
2013-01-20 12:04:00,49.7,36.0,30.33,WNW,298,0.0,3.0,60,0.00,,,0.00,weatherlink.com 1.10,2013-01-20 17:04:00,
2013-01-20 12:19:00,50.9,37.0,30.32,SW,224,0.0,4.0,60,0.00,,,0.00,weatherlink.com 1.10,2013-01-20 17:19:00,
2013-01-20 12:35:00,51.6,36.0,30.32,West,279,0.0,1.0,55,0.00,,,0.00,weatherlink.com 1.10,2013-01-20 17:35:00,
2013-01-20 12:50:00,52.3,35.0,30.31,NE,53,0.0,1.0,53,0.00,,,0.00,weatherlink.com 1.10,2013-01-20 17:50:00,
2013-01-20 13:05:00,52.9,37.0,30.30,South,169,0.0,3.0,55,0.00,,,0.00,weatherlink.com 1.10,2013-01-20 18:05:00,
2013-01-20 13:20:00,54.3,37.0,30.29,NNE,24,0.0,1.0,52,0.00,,,0.00,weatherlink.com 1.10,2013-01-20 18:20:00,
2013-01-20 13:35:00,54.1,36.0,30.29,NNE,24,0.0,2.0,51,0.00,,,0.00,weatherlink.com 1.10,2013-01-20 18:35:00,
2013-01-20 13:50:00,55.2,38.0,30.29,WNW,291,2.0,2.0,53,0.00,,,0.00,weatherlink.com 1.10,2013-01-20 18:50:00,
2013-01-20 14:05:00,55.4,37.0,30.28,WNW,287,0.0,5.0,50,0.00,,,0.00,weatherlink.com 1.10,2013-01-20 19:05:00,
2013-01-20 14:20:00,56.3,37.0,30.27,WSW,246,0.0,1.0,49,0.00,,,0.00,weatherlink.com 1.10,2013-01-20 19:20:00,
2013-01-20 14:35:00,57.0,37.0,30.27,ENE,61,0.0,2.0,47,0.00,,,0.00,weatherlink.com 1.10,2013-01-20 19:35:00,
2013-01-20 14:50:00,58.1,35.0,30.26,WNW,286,0.0,1.0,42,0.00,,,0.00,weatherlink.com 1.10,2013-01-20 19:50:00,
2013-01-20 15:05:00,58.0,32.0,30.25,West,280,0.0,7.0,38,0.00,,,0.00,weatherlink.com 1.10,2013-01-20 20:05:00,
2013-01-20 15:20:00,58.8,34.0,30.25,South,177,0.0,2.0,39,0.00,,,0.00,weatherlink.com 1.10,2013-01-20 20:20:00,
2013-01-20 15:35:00,59.3,31.0,30.25,WNW,286,0.0,2.0,35,0.00,,,0.00,weatherlink.com 1.10,2013-01-20 20:35:00,
2013-01-20 15:50:00,59.1,31.0,30.25,East,84,0.0,2.0,34,0.00,,,0.00,weatherlink.com 1.10,2013-01-20 20:50:00,
2013-01-20 16:05:00,58.6,34.0,30.26,SSE,150,0.0,5.0,40,0.00,,,0.00,weatherlink.com 1.10,2013-01-20 21:05:00,
2013-01-20 16:20:00,58.9,34.0,30.26,East,94,0.0,1.0,40,0.00,,,0.00,weatherlink.com 1.10,2013-01-20 21:20:00,
2013-01-20 16:35:00,58.4,33.0,30.26,ESE,123,0.0,1.0,39,0.00,,,0.00,weatherlink.com 1.10,2013-01-20 21:35:00,
2013-01-20 16:50:00,56.5,33.0,30.27,ESE,103,0.0,0.0,41,0.00,,,0.00,weatherlink.com 1.10,2013-01-20 21:50:00,
2013-01-20 17:05:00,54.6,32.0,30.27,ESE,108,0.0,0.0,43,0.00,,,0.00,weatherlink.com 1.10,2013-01-20 22:05:00,
2013-01-20 17:20:00,52.3,32.0,30.27,ESE,104,0.0,1.0,47,0.00,,,0.00,weatherlink.com 1.10,2013-01-20 22:20:00,
2013-01-20 17:35:00,50.1,33.0,30.28,East,93,0.0,0.0,52,0.00,,,0.00,weatherlink.com 1.10,2013-01-20 22:35:00,
2013-01-20 17:50:00,48.7,33.0,30.28,East,80,0.0,0.0,54,0.00,,,0.00,weatherlink.com 1.10,2013-01-20 22:50:00,
2013-01-20 18:05:00,47.8,33.0,30.28,SSE,154,0.0,0.0,56,0.00,,,0.00,weatherlink.com 1.10,2013-01-20 23:05:00,
2013-01-20 18:20:00,46.7,32.0,30.28,NW,304,0.0,0.0,58,0.00,,,0.00,weatherlink.com 1.10,2013-01-20 23:20:00,
2013-01-20 18:35:00,46.4,33.0,30.28,East,96,0.0,0.0,60,0.00,,,0.00,weatherlink.com 1.10,2013-01-20 23:35:00,
2013-01-20 18:50:00,45.5,33.0,30.28,NW,322,0.0,0.0,62,0.00,,,0.00,weatherlink.com 1.10,2013-01-20 23:50:00,
2013-01-20 19:05:00,44.3,34.0,30.28,SE,139,0.0,0.0,66,0.00,,,0.00,weatherlink.com 1.10,2013-01-21 00:05:00,
2013-01-20 19:20:00,43.9,34.0,30.28,SSW,207,0.0,0.0,67,0.00,,,0.00,weatherlink.com 1.10,2013-01-21 00:20:00,
2013-01-20 19:35:00,43.0,33.0,30.28,SE,138,0.0,0.0,69,0.00,,,0.00,weatherlink.com 1.10,2013-01-21 00:35:00,
2013-01-20 19:50:00,42.7,33.0,30.28,South,169,0.0,0.0,69,0.00,,,0.00,weatherlink.com 1.10,2013-01-21 00:50:00,
2013-01-20 20:05:00,42.2,33.0,30.28,NE,34,0.0,0.0,71,0.00,,,0.00,weatherlink.com 1.10,2013-01-21 01:05:00,
2013-01-20 20:20:00,40.9,33.0,30.28,NE,34,0.0,0.0,74,0.00,,,0.00,weatherlink.com 1.10,2013-01-21 01:20:00,
2013-01-20 20:35:00,40.4,33.0,30.28,NE,34,0.0,0.0,76,0.00,,,0.00,weatherlink.com 1.10,2013-01-21 01:35:00,
2013-01-20 20:50:00,40.1,33.0,30.28,NE,34,0.0,0.0,76,0.00,,,0.00,weatherlink.com 1.10,2013-01-21 01:50:00,
2013-01-20 21:05:00,40.1,34.0,30.28,SE,146,0.0,0.0,78,0.00,,,0.00,weatherlink.com 1.10,2013-01-21 02:05:00,
2013-01-20 21:20:00,39.8,33.0,30.28,East,79,0.0,0.0,78,0.00,,,0.00,weatherlink.com 1.10,2013-01-21 02:20:00,
2013-01-20 21:35:00,39.2,34.0,30.27,East,79,0.0,0.0,80,0.00,,,0.00,weatherlink.com 1.10,2013-01-21 02:35:00,
2013-01-20 21:50:00,37.3,32.0,30.27,East,79,0.0,0.0,82,0.00,,,0.00,weatherlink.com 1.10,2013-01-21 02:50:00,
2013-01-20 22:05:00,35.3,32.0,30.27,East,79,0.0,0.0,86,0.00,,,0.00,weatherlink.com 1.10,2013-01-21 03:05:00,
2013-01-20 22:20:00,34.3,31.0,30.27,East,79,0.0,0.0,88,0.00,,,0.00,weatherlink.com 1.10,2013-01-21 03:20:00,
2013-01-20 22:36:00,34.1,31.0,30.27,East,79,0.0,0.0,89,0.00,,,0.00,weatherlink.com 1.10,2013-01-21 03:36:00,
2013-01-20 22:51:00,35.2,32.0,30.27,East,80,0.0,0.0,87,0.00,,,0.00,weatherlink.com 1.10,2013-01-21 03:51:00,
2013-01-20 23:06:00,34.0,31.0,30.27,East,81,0.0,0.0,88,0.00,,,0.00,weatherlink.com 1.10,2013-01-21 04:06:00,
2013-01-20 23:21:00,33.1,30.0,30.27,East,81,0.0,0.0,89,0.00,,,0.00,weatherlink.com 1.10,2013-01-21 04:21:00,
2013-01-20 23:36:00,32.3,30.0,30.27,East,81,0.0,0.0,90,0.00,,,0.00,weatherlink.com 1.10,2013-01-21 04:36:00,
2013-01-20 23:51:00,32.1,30.0,30.27,East,81,0.0,0.0,90,0.00,,,0.00,weatherlink.com 1.10,2013-01-21 04:51:00,